createdAt,value
2022-12-19T00:00:48.715Z,47.40
2022-12-19T00:03:28.027Z,49.00
2022-12-19T00:05:56.372Z,49.80
2022-12-19T00:08:24.555Z,51.30
2022-12-19T00:10:58.459Z,50.40
2022-12-19T00:13:27.759Z,46.80
2022-12-19T00:16:11.998Z,43.40
2022-12-19T00:18:41.350Z,37.90
2022-12-19T00:21:11.744Z,37.70
2022-12-19T00:23:40.097Z,31.90
2022-12-19T00:26:15.559Z,33.10
2022-12-19T00:28:46.906Z,34.30
2022-12-19T00:31:18.049Z,33.30
2022-12-19T00:33:48.792Z,36.80
2022-12-19T00:36:22.496Z,35.70
2022-12-19T00:38:53.173Z,34.20
2022-12-19T00:41:29.454Z,34.00
2022-12-19T00:44:02.799Z,35.40
2022-12-19T00:46:34.220Z,36.30
2022-12-19T00:49:03.499Z,36.80
2022-12-19T00:51:34.253Z,35.60
2022-12-19T00:54:05.445Z,35.50
2022-12-19T00:56:37.872Z,36.40
2022-12-19T00:59:08.979Z,35.10
2022-12-19T01:01:40.619Z,35.30
2022-12-19T01:04:29.772Z,25.10
2022-12-19T01:07:02.375Z,20.80
2022-12-19T01:09:34.896Z,21.70
2022-12-19T01:12:24.362Z,21.70
2022-12-19T01:15:01.112Z,20.40
2022-12-19T01:17:37.039Z,21.90
2022-12-19T01:20:22.253Z,21.70
2022-12-19T01:23:00.272Z,20.40
2022-12-19T01:25:29.193Z,20.50
2022-12-19T01:27:57.599Z,21.60
2022-12-19T01:30:29.043Z,21.30
2022-12-19T01:32:59.558Z,20.80
2022-12-19T01:35:28.540Z,18.50
2022-12-19T01:38:08.707Z,20.60
2022-12-19T01:40:37.522Z,20.20
2022-12-19T01:43:06.202Z,19.20
2022-12-19T01:45:39.461Z,19.80
2022-12-19T01:48:17.906Z,20.10
2022-12-19T01:50:58.265Z,19.20
2022-12-19T01:53:48.207Z,17.80
2022-12-19T01:56:29.395Z,18.50
2022-12-19T01:59:06.623Z,19.90
2022-12-19T02:01:51.231Z,20.90
2022-12-19T02:04:27.170Z,20.00
2022-12-19T02:07:15.258Z,22.10
2022-12-19T02:09:56.917Z,20.60
2022-12-19T02:12:29.779Z,21.80
2022-12-19T02:15:02.746Z,19.80
2022-12-19T02:18:10.365Z,21.20
2022-12-19T02:20:38.354Z,20.60
2022-12-19T02:23:48.379Z,21.10
2022-12-19T02:26:38.035Z,19.40
2022-12-19T02:29:09.376Z,22.30
2022-12-19T02:31:51.943Z,21.50
2022-12-19T02:34:44.123Z,23.00
2022-12-19T02:37:29.747Z,24.80
2022-12-19T02:40:17.775Z,22.00
2022-12-19T02:42:52.427Z,22.40
2022-12-19T02:45:28.866Z,21.80
2022-12-19T02:48:04.486Z,24.10
2022-12-19T02:50:42.395Z,23.20
2022-12-19T02:53:14.674Z,23.30
2022-12-19T02:55:51.028Z,21.40
2022-12-19T02:58:31.251Z,23.20
2022-12-19T03:01:25.256Z,24.40
2022-12-19T03:04:27.889Z,24.80
2022-12-19T03:07:04.398Z,23.00
2022-12-19T03:09:45.817Z,24.00
2022-12-19T03:12:24.832Z,22.40
2022-12-19T03:14:54.477Z,24.10
2022-12-19T03:17:22.893Z,28.60
2022-12-19T03:19:50.968Z,26.70
2022-12-19T03:22:19.272Z,27.90
2022-12-19T03:24:47.591Z,27.10
2022-12-19T03:27:22.861Z,24.70
2022-12-19T03:30:01.808Z,27.30
2022-12-19T03:32:32.008Z,30.60
2022-12-19T03:35:12.066Z,31.30
2022-12-19T03:37:42.895Z,31.80
2022-12-19T03:40:16.097Z,30.20
2022-12-19T03:43:05.410Z,29.20
2022-12-19T03:46:03.142Z,28.30
2022-12-19T03:48:39.011Z,25.20
2022-12-19T03:51:29.896Z,25.80
2022-12-19T03:59:25.941Z,18.20
2022-12-19T04:01:55.468Z,25.30
2022-12-19T04:04:25.938Z,26.00
2022-12-19T04:06:54.850Z,28.40
2022-12-19T04:09:24.316Z,28.10
2022-12-19T04:12:03.178Z,26.50
2022-12-19T04:14:35.619Z,27.30
2022-12-19T04:17:16.079Z,25.30
2022-12-19T04:20:05.002Z,28.30
2022-12-19T04:22:42.096Z,29.10
2022-12-19T04:25:19.025Z,28.00
2022-12-19T04:28:01.943Z,27.30
2022-12-19T04:30:29.986Z,29.90
2022-12-19T04:33:04.985Z,26.60
2022-12-19T04:35:34.026Z,24.00
2022-12-19T04:38:02.180Z,24.70
2022-12-19T04:40:30.676Z,23.70
2022-12-19T04:42:58.764Z,24.60
2022-12-19T04:45:26.850Z,25.70
2022-12-19T04:47:54.976Z,28.90
2022-12-19T04:50:23.010Z,27.20
2022-12-19T04:52:55.627Z,27.90
2022-12-19T04:55:25.013Z,27.00
2022-12-19T04:57:53.313Z,24.40
2022-12-19T05:00:21.601Z,31.60
2022-12-19T05:02:49.977Z,27.90
2022-12-19T05:05:19.208Z,27.50
2022-12-19T05:07:47.575Z,29.80
2022-12-19T05:10:15.749Z,30.00
2022-12-19T05:12:44.343Z,28.40
2022-12-19T05:15:12.719Z,32.30
2022-12-19T05:17:41.074Z,26.00
2022-12-19T05:20:09.910Z,31.90
2022-12-19T05:22:38.099Z,29.70
2022-12-19T05:25:06.636Z,35.60
2022-12-19T05:27:34.478Z,56.70
2022-12-19T05:30:02.732Z,38.40
2022-12-19T05:32:32.314Z,26.20
2022-12-19T05:35:00.687Z,25.70
2022-12-19T05:37:28.605Z,25.10
2022-12-19T05:39:56.500Z,24.00
2022-12-19T05:42:25.503Z,26.60
2022-12-19T05:44:53.724Z,27.60
2022-12-19T05:47:21.887Z,28.60
2022-12-19T05:49:50.130Z,28.00
2022-12-19T05:52:18.227Z,29.70
2022-12-19T05:54:46.386Z,28.60
2022-12-19T05:57:14.352Z,27.50
2022-12-19T05:59:42.520Z,27.80
2022-12-19T06:02:10.724Z,29.60
2022-12-19T06:04:38.843Z,29.50
2022-12-19T06:07:06.695Z,28.60
2022-12-19T06:09:35.823Z,35.10
2022-12-19T06:12:04.601Z,39.00
2022-12-19T06:14:32.563Z,31.20
2022-12-19T06:17:00.736Z,30.30
2022-12-19T06:19:30.020Z,29.50
2022-12-19T06:21:58.284Z,29.70
2022-12-19T06:24:26.695Z,27.30
2022-12-19T06:26:54.746Z,26.40
2022-12-19T06:29:22.832Z,24.70
2022-12-19T06:31:51.114Z,24.60
2022-12-19T06:34:39.848Z,25.20
2022-12-19T06:37:08.517Z,23.60
2022-12-19T06:39:36.757Z,24.70
2022-12-19T06:42:23.287Z,21.00
2022-12-19T06:44:52.830Z,22.60
2022-12-19T06:47:22.416Z,24.90
2022-12-19T06:49:50.547Z,22.40
2022-12-19T06:52:18.499Z,25.70
2022-12-19T06:54:46.873Z,25.10
2022-12-19T06:57:14.962Z,25.60
2022-12-19T06:59:43.604Z,24.80
2022-12-19T07:02:19.278Z,26.40
2022-12-19T07:04:54.765Z,25.50
2022-12-19T07:07:22.899Z,22.90
2022-12-19T07:09:50.928Z,26.90
2022-12-19T07:12:18.817Z,28.90
2022-12-19T07:14:51.644Z,29.10
2022-12-19T07:17:24.647Z,26.00
2022-12-19T07:19:57.325Z,29.30
2022-12-19T07:22:29.364Z,24.50
2022-12-19T07:24:58.841Z,26.00
2022-12-19T07:27:35.183Z,28.00
2022-12-19T07:30:06.281Z,27.50
2022-12-19T07:35:02.768Z,29.80
2022-12-19T07:37:30.698Z,30.60
2022-12-19T07:39:58.917Z,32.10
2022-12-19T07:42:32.220Z,34.30
2022-12-19T07:45:01.777Z,36.10
2022-12-19T07:47:30.140Z,34.90
2022-12-19T07:49:58.063Z,31.30
2022-12-19T07:52:26.482Z,29.10
2022-12-19T07:54:54.541Z,27.70
2022-12-19T07:57:22.914Z,26.90
2022-12-19T07:59:51.036Z,21.20
2022-12-19T08:02:19.354Z,24.50
2022-12-19T08:04:47.756Z,18.50
2022-12-19T08:07:16.058Z,21.00
2022-12-19T08:09:44.098Z,28.40
2022-12-19T08:12:12.069Z,21.50
2022-12-19T08:14:40.239Z,22.20
2022-12-19T08:17:25.120Z,20.90
2022-12-19T08:19:53.498Z,23.60
2022-12-19T08:22:21.698Z,22.10
2022-12-19T08:24:49.839Z,19.20
2022-12-19T08:27:18.007Z,20.90
2022-12-19T08:29:47.513Z,21.60
2022-12-19T08:32:20.827Z,20.20
2022-12-19T08:34:50.015Z,28.10
2022-12-19T08:37:18.197Z,22.60
2022-12-19T08:39:46.266Z,20.10
2022-12-19T08:42:14.186Z,20.10
2022-12-19T08:44:42.594Z,19.60
2022-12-19T08:47:10.663Z,32.60
2022-12-19T08:49:38.615Z,24.70
2022-12-19T08:52:06.814Z,26.90
2022-12-19T08:54:34.867Z,19.90
2022-12-19T08:57:03.508Z,20.80
2022-12-19T08:59:32.270Z,20.10
2022-12-19T09:02:01.425Z,22.10
2022-12-19T09:06:00.497Z,19.30
2022-12-19T09:07:18.708Z,20.20
2022-12-19T09:09:46.639Z,19.40
2022-12-19T09:12:16.572Z,19.00
2022-12-19T09:14:44.618Z,21.00
2022-12-19T09:17:12.936Z,20.00
2022-12-19T09:19:41.247Z,21.90
2022-12-19T09:22:15.573Z,17.80
2022-12-19T09:24:43.613Z,18.60
2022-12-19T09:27:11.751Z,17.90
2022-12-19T09:29:39.719Z,23.60
2022-12-19T09:32:07.928Z,20.50
2022-12-19T09:34:38.556Z,24.20
2022-12-19T09:37:10.381Z,25.20
2022-12-19T09:39:48.549Z,22.50
2022-12-19T09:42:46.471Z,18.60
2022-12-19T09:45:31.549Z,19.20
2022-12-19T09:48:01.953Z,20.60
2022-12-19T09:50:52.219Z,18.40
2022-12-19T09:53:32.032Z,17.30
2022-12-19T09:56:03.110Z,18.20
2022-12-19T09:58:41.170Z,15.50
2022-12-19T10:01:20.260Z,14.50
2022-12-19T10:04:00.246Z,14.10
2022-12-19T10:07:06.921Z,13.50
2022-12-19T10:12:29.650Z,12.90
2022-12-19T10:12:38.937Z,12.60
2022-12-19T10:15:10.425Z,13.60
2022-12-19T10:17:49.571Z,15.60
2022-12-19T10:20:35.582Z,14.40
2022-12-19T10:23:18.921Z,15.60
2022-12-19T10:25:54.338Z,15.90
2022-12-19T10:28:44.428Z,14.60
2022-12-19T10:31:22.701Z,14.90
2022-12-19T10:34:02.854Z,16.50
2022-12-19T10:37:12.518Z,16.90
2022-12-19T10:39:48.536Z,16.10
2022-12-19T10:42:25.431Z,13.80
2022-12-19T10:44:57.208Z,15.40
2022-12-19T10:47:25.368Z,16.00
2022-12-19T10:49:53.502Z,12.80
2022-12-19T10:52:52.624Z,14.40
2022-12-19T10:55:32.843Z,13.20
2022-12-19T10:58:12.582Z,14.90
2022-12-19T11:01:09.985Z,13.60
2022-12-19T11:03:41.890Z,14.50
2022-12-19T11:06:41.924Z,13.50
2022-12-19T11:09:31.674Z,14.00
2022-12-19T11:15:55.984Z,11.30
2022-12-19T11:20:27.032Z,12.50
2022-12-19T11:29:15.666Z,13.20
2022-12-19T11:29:34.802Z,13.80
2022-12-19T11:29:35.024Z,13.40
2022-12-19T11:30:36.477Z,12.80
2022-12-19T11:33:18.830Z,12.80
2022-12-19T11:35:55.500Z,12.20
2022-12-19T11:38:37.795Z,12.70
2022-12-19T11:41:16.673Z,12.40
2022-12-19T11:43:56.916Z,13.00
2022-12-19T11:46:35.093Z,15.50
2022-12-19T11:49:12.378Z,20.80
2022-12-19T11:51:51.256Z,23.50
2022-12-19T11:54:44.742Z,22.80
2022-12-19T11:57:13.308Z,21.50
2022-12-19T11:59:41.688Z,22.90
2022-12-19T12:02:18.454Z,26.90
2022-12-19T12:05:02.024Z,23.80
2022-12-19T12:08:27.452Z,23.50
2022-12-19T12:15:02.251Z,24.50
2022-12-19T12:22:46.473Z,24.70
2022-12-19T12:30:36.321Z,26.10
2022-12-19T12:31:07.269Z,28.40
2022-12-19T12:31:39.013Z,27.00
2022-12-19T12:31:40.237Z,27.00
2022-12-19T12:31:43.660Z,23.50
2022-12-19T12:35:50.923Z,27.30
2022-12-19T12:36:54.506Z,24.90
2022-12-19T12:38:27.410Z,29.20
2022-12-19T12:41:02.193Z,26.90
2022-12-19T12:44:00.599Z,28.30
2022-12-19T12:46:35.214Z,26.80
2022-12-19T12:49:24.366Z,28.00
2022-12-19T12:51:52.786Z,30.70
2022-12-19T12:54:22.225Z,29.10
2022-12-19T12:56:50.213Z,28.50
2022-12-19T12:59:25.313Z,27.60
2022-12-19T13:01:57.249Z,24.90
2022-12-19T13:04:32.858Z,25.30
2022-12-19T13:07:21.142Z,25.20
2022-12-19T13:10:05.120Z,27.70
2022-12-19T13:12:52.124Z,29.50
2022-12-19T13:15:37.401Z,28.60
2022-12-19T13:18:38.269Z,28.80
2022-12-19T13:23:38.311Z,26.80
2022-12-19T13:26:20.149Z,25.20
2022-12-19T13:28:48.719Z,26.20
2022-12-19T13:31:22.896Z,26.10
2022-12-19T13:33:55.765Z,23.00
2022-12-19T13:39:48.574Z,21.90
2022-12-19T13:40:10.919Z,21.20
2022-12-19T13:43:22.034Z,22.40
2022-12-19T13:45:54.695Z,23.10
2022-12-19T13:48:40.092Z,22.70
2022-12-19T13:51:11.966Z,22.00
2022-12-19T13:53:42.095Z,23.40
2022-12-19T13:56:15.981Z,23.00
2022-12-19T13:58:51.492Z,24.10
2022-12-19T14:01:24.774Z,25.80
2022-12-19T14:03:55.596Z,24.70
2022-12-19T14:06:31.211Z,22.20
2022-12-19T14:10:42.370Z,24.20
2022-12-19T14:13:39.883Z,22.10
2022-12-19T14:15:13.273Z,21.60
2022-12-19T14:17:49.302Z,19.80
2022-12-19T14:22:02.138Z,22.10
2022-12-19T14:23:08.636Z,22.00
2022-12-19T14:28:15.068Z,22.60
2022-12-19T14:29:08.069Z,23.90
2022-12-19T14:31:39.377Z,22.20
2022-12-19T14:39:19.408Z,22.10
2022-12-19T14:41:00.229Z,24.00
2022-12-19T14:43:59.897Z,25.30
2022-12-19T14:54:13.168Z,23.80
2022-12-19T14:54:43.807Z,19.60
2022-12-19T14:58:57.796Z,18.10
2022-12-19T15:01:29.872Z,20.90
2022-12-19T15:04:50.229Z,21.70
2022-12-19T15:07:07.693Z,21.70
2022-12-19T15:11:09.161Z,22.10
2022-12-19T15:14:47.044Z,22.70
2022-12-19T15:16:06.226Z,25.70
2022-12-19T15:18:34.390Z,24.70
2022-12-19T15:21:13.040Z,25.10
2022-12-19T15:23:43.557Z,26.70
2022-12-19T15:28:53.415Z,25.30
2022-12-19T15:31:24.587Z,27.70
2022-12-19T15:34:32.464Z,29.20
2022-12-19T15:36:40.908Z,32.90
2022-12-19T15:39:08.888Z,33.70
2022-12-19T15:41:36.915Z,30.80
2022-12-19T15:44:19.161Z,33.30
2022-12-19T15:46:49.269Z,34.40
2022-12-19T15:49:22.079Z,31.80
2022-12-19T15:51:50.754Z,30.50
2022-12-19T15:54:48.042Z,32.50
2022-12-19T15:57:22.868Z,32.70
2022-12-19T15:59:51.615Z,35.70
2022-12-19T16:02:24.187Z,39.50
2022-12-19T16:04:59.828Z,38.90
2022-12-19T16:07:31.892Z,39.70
2022-12-19T16:10:00.363Z,44.10
2022-12-19T16:12:35.513Z,47.60
2022-12-19T16:15:04.553Z,66.40
2022-12-19T16:17:35.752Z,53.00
2022-12-19T16:20:04.590Z,48.40
2022-12-19T16:22:32.509Z,48.40
2022-12-19T16:25:00.568Z,51.30
2022-12-19T16:27:31.918Z,56.60
2022-12-19T16:30:18.966Z,61.00
2022-12-19T16:32:48.055Z,57.30
2022-12-19T16:35:55.003Z,59.60
2022-12-19T16:38:13.143Z,59.30
2022-12-19T16:40:42.409Z,65.90
2022-12-19T16:43:31.257Z,64.30
2022-12-19T16:46:01.398Z,73.80
2022-12-19T16:48:30.366Z,63.10
2022-12-19T16:51:00.249Z,56.50
2022-12-19T16:53:29.502Z,54.90
2022-12-19T16:55:59.759Z,56.00
2022-12-19T16:58:29.783Z,56.60
2022-12-19T17:00:57.911Z,55.50
2022-12-19T17:03:38.120Z,53.80
2022-12-19T17:06:06.510Z,62.20
2022-12-19T17:08:34.448Z,61.80
2022-12-19T17:11:03.043Z,66.50
2022-12-19T17:13:31.440Z,66.60
2022-12-19T17:16:00.996Z,71.90
2022-12-19T17:18:33.279Z,71.50
2022-12-19T17:21:02.141Z,66.60
2022-12-19T17:23:32.776Z,64.20
2022-12-19T17:28:30.037Z,60.70
2022-12-19T17:31:07.579Z,61.60
2022-12-19T17:33:39.632Z,67.90
2022-12-19T17:36:12.894Z,70.50
2022-12-19T17:38:41.637Z,70.90
2022-12-19T17:41:15.981Z,71.70
2022-12-19T17:43:44.484Z,68.60
2022-12-19T17:46:18.401Z,64.30
2022-12-19T17:48:50.394Z,55.30
2022-12-19T17:51:21.532Z,55.20
2022-12-19T17:53:50.058Z,50.60
2022-12-19T17:56:20.677Z,44.30
2022-12-19T17:58:49.129Z,44.40
2022-12-19T18:01:18.400Z,45.60
2022-12-19T18:03:47.913Z,43.70
2022-12-19T18:06:16.937Z,47.00
2022-12-19T18:08:45.363Z,44.20
2022-12-19T18:11:35.468Z,40.00
2022-12-19T18:14:08.001Z,40.20
2022-12-19T18:16:36.054Z,42.20
2022-12-19T18:19:05.463Z,36.00
2022-12-19T18:21:33.565Z,41.00
2022-12-19T18:24:01.724Z,38.20
2022-12-19T18:26:33.968Z,37.80
2022-12-19T18:29:02.427Z,39.20
2022-12-19T18:31:30.545Z,38.00
2022-12-19T18:34:07.150Z,38.80
2022-12-19T18:36:40.621Z,40.40
2022-12-19T18:39:21.067Z,40.30
2022-12-19T18:41:50.417Z,44.00
2022-12-19T18:44:18.988Z,39.80
2022-12-19T18:46:49.703Z,41.10
2022-12-19T18:49:18.561Z,39.30
2022-12-19T18:51:46.908Z,32.90
2022-12-19T18:54:20.228Z,34.10
2022-12-19T18:56:48.782Z,33.70
2022-12-19T18:59:16.672Z,33.40
2022-12-19T19:01:47.500Z,33.50
2022-12-19T19:04:18.139Z,34.60
2022-12-19T19:09:21.125Z,32.90
2022-12-19T19:12:15.146Z,35.90
2022-12-19T19:14:43.422Z,32.40
2022-12-19T19:17:24.333Z,32.30
2022-12-19T19:19:52.664Z,30.20
2022-12-19T19:22:20.782Z,30.10
2022-12-19T19:24:48.736Z,29.90
2022-12-19T19:27:17.756Z,29.50
2022-12-19T19:29:46.096Z,29.30
2022-12-19T19:32:14.016Z,30.30
2022-12-19T19:34:42.245Z,26.80
2022-12-19T19:37:13.611Z,26.60
2022-12-19T19:39:42.100Z,26.20
2022-12-19T19:42:10.247Z,30.80
2022-12-19T19:44:38.203Z,33.30
2022-12-19T19:47:06.408Z,31.50
2022-12-19T19:49:34.480Z,32.00
2022-12-19T19:52:03.160Z,32.20
2022-12-19T19:54:31.602Z,33.70
2022-12-19T19:56:59.632Z,34.20
2022-12-19T19:59:31.675Z,35.10
2022-12-19T20:01:59.953Z,35.40
2022-12-19T20:04:28.284Z,36.00
2022-12-19T20:06:56.420Z,31.10
2022-12-19T20:09:24.650Z,34.10
2022-12-19T20:11:52.633Z,33.90
2022-12-19T20:14:20.799Z,34.40
2022-12-19T20:16:50.473Z,33.70
2022-12-19T20:19:18.557Z,33.60
2022-12-19T20:21:46.808Z,31.20
2022-12-19T20:24:15.314Z,29.80
2022-12-19T20:26:43.322Z,30.40
2022-12-19T20:29:11.566Z,32.00
2022-12-19T20:31:39.970Z,31.90
2022-12-19T20:34:08.110Z,32.80
2022-12-19T20:36:36.708Z,34.10
2022-12-19T20:39:05.448Z,34.30
2022-12-19T20:41:34.001Z,35.20
2022-12-19T20:44:02.128Z,33.50
2022-12-19T20:46:30.624Z,33.70
2022-12-19T20:48:58.659Z,33.90
2022-12-19T20:51:26.756Z,35.90
2022-12-19T20:53:54.904Z,33.00
2022-12-19T20:56:26.213Z,31.50
2022-12-19T20:58:54.637Z,32.70
2022-12-19T21:01:25.378Z,32.90
2022-12-19T21:03:53.634Z,31.50
2022-12-19T21:06:25.410Z,31.60
2022-12-19T21:08:55.489Z,33.30
2022-12-19T21:11:24.364Z,34.80
2022-12-19T21:13:52.806Z,33.70
2022-12-19T21:16:22.613Z,32.70
2022-12-19T21:18:51.669Z,34.60
2022-12-19T21:21:23.911Z,33.50
2022-12-19T21:23:53.262Z,34.40
2022-12-19T21:26:23.378Z,34.20
2022-12-19T21:28:51.911Z,33.60
2022-12-19T21:31:25.586Z,30.90
2022-12-19T21:33:55.602Z,28.20
2022-12-19T21:36:25.215Z,26.20
2022-12-19T21:38:55.981Z,26.10
2022-12-19T21:43:54.199Z,21.90
2022-12-19T21:46:28.486Z,29.30
2022-12-19T21:48:57.883Z,29.40
2022-12-19T21:51:29.930Z,27.10
2022-12-19T21:54:02.959Z,28.20
2022-12-19T21:56:32.523Z,30.20
2022-12-19T21:59:03.701Z,28.80
2022-12-19T22:01:32.631Z,28.40
2022-12-19T22:04:07.663Z,26.10
2022-12-19T22:06:37.840Z,27.60
2022-12-19T22:09:08.157Z,27.60
2022-12-19T22:11:36.858Z,28.90
2022-12-19T22:14:05.401Z,26.30
2022-12-19T22:16:34.463Z,23.50
2022-12-19T22:19:03.279Z,23.20
2022-12-19T22:21:32.644Z,25.60
2022-12-19T22:24:02.820Z,25.40
2022-12-19T22:26:31.707Z,27.40
2022-12-19T22:29:00.058Z,27.20
2022-12-19T22:31:31.095Z,27.50
2022-12-19T22:34:04.935Z,29.50
2022-12-19T22:36:34.943Z,27.80
2022-12-19T22:39:07.051Z,30.10
2022-12-19T22:41:36.085Z,27.00
2022-12-19T22:44:04.802Z,29.00
2022-12-19T22:46:35.913Z,27.70
2022-12-19T22:49:06.904Z,25.50
2022-12-19T22:51:36.783Z,23.00
2022-12-19T22:54:06.167Z,22.40
2022-12-19T22:56:35.282Z,22.70
2022-12-19T22:59:06.722Z,24.20
2022-12-19T23:01:43.825Z,26.90
2022-12-19T23:04:14.945Z,26.70
2022-12-19T23:06:44.509Z,28.00
2022-12-19T23:09:14.940Z,30.30
2022-12-19T23:11:46.783Z,27.20
2022-12-19T23:14:17.216Z,27.90
2022-12-19T23:16:45.752Z,30.30
2022-12-19T23:19:17.671Z,30.30
2022-12-19T23:21:46.225Z,28.10
2022-12-19T23:24:14.507Z,27.90
2022-12-19T23:26:42.780Z,23.70
2022-12-19T23:29:13.859Z,23.10
2022-12-19T23:31:44.923Z,23.80
2022-12-19T23:34:14.454Z,23.80
2022-12-19T23:39:30.516Z,27.10
2022-12-19T23:41:58.723Z,28.20
2022-12-19T23:44:26.940Z,27.30
2022-12-19T23:47:02.295Z,26.90
2022-12-19T23:49:33.254Z,24.40
2022-12-19T23:52:02.721Z,25.00
2022-12-19T23:54:30.683Z,23.80
2022-12-19T23:56:58.686Z,23.40
2022-12-19T23:59:26.904Z,23.40
